<?xml version="1.0" encoding="UTF-8" standalone="no" ?>
<gpx xmlns="http://www.topografix.com/GPX/1/1" creator="MapSource 6.11.6" version="1.1" xmlns:xsi="http://www.w3.org/2001/XMLSchema-instance" xsi:schemaLocation="http://www.topografix.com/GPX/1/1 http://www.topografix.com/GPX/1/1/gpx.xsd">

  <metadata>
    <link href="http://www.garmin.com">
      <text>Garmin International</text>
    </link>
    <time>2009-11-07T16:19:27Z</time>
    <bounds maxlat="50.533128" maxlon="6.256560" minlat="50.508156" minlon="6.245749"/>
  </metadata>

  <trk>
    <name>Narzissenweg 3</name>
    <extensions>
      <gpxx:TrackExtension xmlns:gpxx="http://www.garmin.com/xmlschemas/GpxExtensions/v3" xmlns:xsi="http://www.w3.org/2001/XMLSchema-instance" xsi:schemaLocation="http://www.garmin.com/xmlschemas/GpxExtensions/v3 http://www.garmin.com/xmlschemas/GpxExtensions/v3/GpxExtensionsv3.xsd">
        <gpxx:DisplayColor>White</gpxx:DisplayColor>
      </gpxx:TrackExtension>
    </extensions>
    <trkseg>
      <trkpt lat="50.526644" lon="6.255737">
        <ele>475.030000</ele>
        <time>2009-04-26T08:55:14Z</time>
      </trkpt>
      <trkpt lat="50.526076" lon="6.255919">
        <ele>475.990000</ele>
        <time>2009-04-26T08:56:37Z</time>
      </trkpt>
      <trkpt lat="50.525908" lon="6.255834">
        <ele>476.470000</ele>
        <time>2009-04-26T08:56:55Z</time>
      </trkpt>
      <trkpt lat="50.525864" lon="6.255844">
        <ele>476.470000</ele>
        <time>2009-04-26T08:56:59Z</time>
      </trkpt>
      <trkpt lat="50.525680" lon="6.255751">
        <ele>477.910000</ele>
        <time>2009-04-26T08:57:17Z</time>
      </trkpt>
      <trkpt lat="50.525589" lon="6.255775">
        <ele>478.870000</ele>
        <time>2009-04-26T08:57:27Z</time>
      </trkpt>
      <trkpt lat="50.525395" lon="6.255718">
        <ele>480.800000</ele>
        <time>2009-04-26T08:57:43Z</time>
      </trkpt>
      <trkpt lat="50.525258" lon="6.255646">
        <ele>482.240000</ele>
        <time>2009-04-26T08:57:57Z</time>
      </trkpt>
      <trkpt lat="50.525119" lon="6.255646">
        <ele>483.680000</ele>
        <time>2009-04-26T08:58:09Z</time>
      </trkpt>
      <trkpt lat="50.524993" lon="6.255734">
        <ele>484.640000</ele>
        <time>2009-04-26T08:58:22Z</time>
      </trkpt>
      <trkpt lat="50.524834" lon="6.255686">
        <ele>486.080000</ele>
        <time>2009-04-26T08:58:38Z</time>
      </trkpt>
      <trkpt lat="50.524705" lon="6.255693">
        <ele>486.080000</ele>
        <time>2009-04-26T08:58:53Z</time>
      </trkpt>
      <trkpt lat="50.524515" lon="6.255634">
        <ele>484.640000</ele>
        <time>2009-04-26T08:59:09Z</time>
      </trkpt>
      <trkpt lat="50.524508" lon="6.255624">
        <ele>484.640000</ele>
        <time>2009-04-26T08:59:10Z</time>
      </trkpt>
      <trkpt lat="50.524391" lon="6.255639">
        <ele>484.640000</ele>
        <time>2009-04-26T08:59:20Z</time>
      </trkpt>
      <trkpt lat="50.524359" lon="6.255663">
        <ele>484.160000</ele>
        <time>2009-04-26T08:59:23Z</time>
      </trkpt>
      <trkpt lat="50.524238" lon="6.255612">
        <ele>484.160000</ele>
        <time>2009-04-26T08:59:32Z</time>
      </trkpt>
      <trkpt lat="50.524183" lon="6.255558">
        <ele>484.160000</ele>
        <time>2009-04-26T08:59:36Z</time>
      </trkpt>
      <trkpt lat="50.524148" lon="6.255552">
        <ele>484.160000</ele>
        <time>2009-04-26T08:59:39Z</time>
      </trkpt>
      <trkpt lat="50.524091" lon="6.255489">
        <ele>483.680000</ele>
        <time>2009-04-26T08:59:44Z</time>
      </trkpt>
      <trkpt lat="50.523917" lon="6.255302">
        <ele>483.200000</ele>
        <time>2009-04-26T09:00:01Z</time>
      </trkpt>
      <trkpt lat="50.523875" lon="6.255243">
        <ele>483.200000</ele>
        <time>2009-04-26T09:00:04Z</time>
      </trkpt>
      <trkpt lat="50.523753" lon="6.255085">
        <ele>482.240000</ele>
        <time>2009-04-26T09:00:20Z</time>
      </trkpt>
      <trkpt lat="50.523655" lon="6.254948">
        <ele>483.200000</ele>
        <time>2009-04-26T09:00:33Z</time>
      </trkpt>
      <trkpt lat="50.523626" lon="6.254901">
        <ele>483.200000</ele>
        <time>2009-04-26T09:00:36Z</time>
      </trkpt>
      <trkpt lat="50.523505" lon="6.254538">
        <ele>483.680000</ele>
        <time>2009-04-26T09:00:52Z</time>
      </trkpt>
      <trkpt lat="50.523406" lon="6.254341">
        <ele>484.160000</ele>
        <time>2009-04-26T09:01:07Z</time>
      </trkpt>
      <trkpt lat="50.523305" lon="6.254074">
        <ele>485.120000</ele>
        <time>2009-04-26T09:01:22Z</time>
      </trkpt>
      <trkpt lat="50.523295" lon="6.254074">
        <ele>485.120000</ele>
        <time>2009-04-26T09:01:23Z</time>
      </trkpt>
      <trkpt lat="50.523250" lon="6.253843">
        <ele>485.120000</ele>
        <time>2009-04-26T09:01:31Z</time>
      </trkpt>
      <trkpt lat="50.523251" lon="6.253783">
        <ele>485.120000</ele>
        <time>2009-04-26T09:01:35Z</time>
      </trkpt>
      <trkpt lat="50.523176" lon="6.253515">
        <ele>485.120000</ele>
        <time>2009-04-26T09:01:49Z</time>
      </trkpt>
      <trkpt lat="50.523104" lon="6.253466">
        <ele>485.600000</ele>
        <time>2009-04-26T09:01:54Z</time>
      </trkpt>
      <trkpt lat="50.523052" lon="6.253366">
        <ele>486.080000</ele>
        <time>2009-04-26T09:02:01Z</time>
      </trkpt>
      <trkpt lat="50.522996" lon="6.253220">
        <ele>486.080000</ele>
        <time>2009-04-26T09:02:09Z</time>
      </trkpt>
      <trkpt lat="50.522999" lon="6.253174">
        <ele>486.080000</ele>
        <time>2009-04-26T09:02:11Z</time>
      </trkpt>
      <trkpt lat="50.522902" lon="6.253073">
        <ele>485.600000</ele>
        <time>2009-04-26T09:02:19Z</time>
      </trkpt>
      <trkpt lat="50.522889" lon="6.253042">
        <ele>485.600000</ele>
        <time>2009-04-26T09:02:21Z</time>
      </trkpt>
      <trkpt lat="50.522786" lon="6.252825">
        <ele>486.080000</ele>
        <time>2009-04-26T09:02:33Z</time>
      </trkpt>
      <trkpt lat="50.522743" lon="6.252737">
        <ele>486.080000</ele>
        <time>2009-04-26T09:02:38Z</time>
      </trkpt>
      <trkpt lat="50.522718" lon="6.252697">
        <ele>486.080000</ele>
        <time>2009-04-26T09:02:41Z</time>
      </trkpt>
      <trkpt lat="50.522585" lon="6.252528">
        <ele>486.080000</ele>
        <time>2009-04-26T09:02:54Z</time>
      </trkpt>
      <trkpt lat="50.522550" lon="6.252426">
        <ele>486.080000</ele>
        <time>2009-04-26T09:02:59Z</time>
      </trkpt>
      <trkpt lat="50.522432" lon="6.252329">
        <ele>486.560000</ele>
        <time>2009-04-26T09:03:09Z</time>
      </trkpt>
      <trkpt lat="50.522389" lon="6.252282">
        <ele>486.560000</ele>
        <time>2009-04-26T09:03:13Z</time>
      </trkpt>
      <trkpt lat="50.522273" lon="6.252133">
        <ele>486.560000</ele>
        <time>2009-04-26T09:03:24Z</time>
      </trkpt>
      <trkpt lat="50.522254" lon="6.252102">
        <ele>487.050000</ele>
        <time>2009-04-26T09:03:26Z</time>
      </trkpt>
      <trkpt lat="50.522225" lon="6.252061">
        <ele>487.050000</ele>
        <time>2009-04-26T09:03:30Z</time>
      </trkpt>
      <trkpt lat="50.522118" lon="6.251946">
        <ele>487.530000</ele>
        <time>2009-04-26T09:03:39Z</time>
      </trkpt>
      <trkpt lat="50.522085" lon="6.251951">
        <ele>487.530000</ele>
        <time>2009-04-26T09:03:41Z</time>
      </trkpt>
      <trkpt lat="50.522003" lon="6.251898">
        <ele>487.530000</ele>
        <time>2009-04-26T09:03:47Z</time>
      </trkpt>
      <trkpt lat="50.521902" lon="6.251635">
        <ele>488.010000</ele>
        <time>2009-04-26T09:04:01Z</time>
      </trkpt>
      <trkpt lat="50.521798" lon="6.251530">
        <ele>488.490000</ele>
        <time>2009-04-26T09:04:11Z</time>
      </trkpt>
      <trkpt lat="50.521676" lon="6.251408">
        <ele>488.490000</ele>
        <time>2009-04-26T09:04:23Z</time>
      </trkpt>
      <trkpt lat="50.521569" lon="6.251187">
        <ele>488.970000</ele>
        <time>2009-04-26T09:04:37Z</time>
      </trkpt>
      <trkpt lat="50.521370" lon="6.250887">
        <ele>490.410000</ele>
        <time>2009-04-26T09:04:58Z</time>
      </trkpt>
      <trkpt lat="50.521358" lon="6.250883">
        <ele>490.410000</ele>
        <time>2009-04-26T09:04:59Z</time>
      </trkpt>
      <trkpt lat="50.521249" lon="6.250703">
        <ele>490.890000</ele>
        <time>2009-04-26T09:05:17Z</time>
      </trkpt>
      <trkpt lat="50.521088" lon="6.250686">
        <ele>491.370000</ele>
        <time>2009-04-26T09:05:37Z</time>
      </trkpt>
      <trkpt lat="50.520872" lon="6.250500">
        <ele>493.290000</ele>
        <time>2009-04-26T09:05:54Z</time>
      </trkpt>
      <trkpt lat="50.520594" lon="6.250259">
        <ele>493.770000</ele>
        <time>2009-04-26T09:06:19Z</time>
      </trkpt>
      <trkpt lat="50.520497" lon="6.250310">
        <ele>493.770000</ele>
        <time>2009-04-26T09:06:24Z</time>
      </trkpt>
      <trkpt lat="50.520465" lon="6.250196">
        <ele>493.770000</ele>
        <time>2009-04-26T09:06:29Z</time>
      </trkpt>
      <trkpt lat="50.520330" lon="6.250157">
        <ele>494.260000</ele>
        <time>2009-04-26T09:06:41Z</time>
      </trkpt>
      <trkpt lat="50.520220" lon="6.250112">
        <ele>494.260000</ele>
        <time>2009-04-26T09:06:50Z</time>
      </trkpt>
      <trkpt lat="50.519906" lon="6.250091">
        <ele>494.260000</ele>
        <time>2009-04-26T09:07:11Z</time>
      </trkpt>
      <trkpt lat="50.519784" lon="6.250072">
        <ele>494.740000</ele>
        <time>2009-04-26T09:07:21Z</time>
      </trkpt>
      <trkpt lat="50.519700" lon="6.250068">
        <ele>494.740000</ele>
        <time>2009-04-26T09:07:26Z</time>
      </trkpt>
      <trkpt lat="50.519600" lon="6.250045">
        <ele>494.740000</ele>
        <time>2009-04-26T09:07:32Z</time>
      </trkpt>
      <trkpt lat="50.519579" lon="6.250016">
        <ele>494.740000</ele>
        <time>2009-04-26T09:07:34Z</time>
      </trkpt>
      <trkpt lat="50.519502" lon="6.249944">
        <ele>494.740000</ele>
        <time>2009-04-26T09:07:40Z</time>
      </trkpt>
      <trkpt lat="50.519482" lon="6.249911">
        <ele>494.260000</ele>
        <time>2009-04-26T09:07:42Z</time>
      </trkpt>
      <trkpt lat="50.519418" lon="6.249881">
        <ele>494.740000</ele>
        <time>2009-04-26T09:07:47Z</time>
      </trkpt>
      <trkpt lat="50.519374" lon="6.249824">
        <ele>494.740000</ele>
        <time>2009-04-26T09:07:51Z</time>
      </trkpt>
      <trkpt lat="50.519314" lon="6.249824">
        <ele>494.260000</ele>
        <time>2009-04-26T09:07:55Z</time>
      </trkpt>
      <trkpt lat="50.519254" lon="6.249778">
        <ele>494.260000</ele>
        <time>2009-04-26T09:08:00Z</time>
      </trkpt>
      <trkpt lat="50.519207" lon="6.249697">
        <ele>494.260000</ele>
        <time>2009-04-26T09:08:06Z</time>
      </trkpt>
      <trkpt lat="50.519111" lon="6.249610">
        <ele>494.740000</ele>
        <time>2009-04-26T09:08:13Z</time>
      </trkpt>
      <trkpt lat="50.519007" lon="6.249500">
        <ele>494.260000</ele>
        <time>2009-04-26T09:08:24Z</time>
      </trkpt>
      <trkpt lat="50.518890" lon="6.249423">
        <ele>494.260000</ele>
        <time>2009-04-26T09:08:33Z</time>
      </trkpt>
      <trkpt lat="50.518822" lon="6.249364">
        <ele>494.260000</ele>
        <time>2009-04-26T09:08:37Z</time>
      </trkpt>
      <trkpt lat="50.518818" lon="6.249249">
        <ele>494.260000</ele>
        <time>2009-04-26T09:08:42Z</time>
      </trkpt>
      <trkpt lat="50.518712" lon="6.249163">
        <ele>494.260000</ele>
        <time>2009-04-26T09:08:51Z</time>
      </trkpt>
      <trkpt lat="50.518681" lon="6.249075">
        <ele>494.260000</ele>
        <time>2009-04-26T09:08:56Z</time>
      </trkpt>
      <trkpt lat="50.518627" lon="6.248913">
        <ele>494.260000</ele>
        <time>2009-04-26T09:09:04Z</time>
      </trkpt>
      <trkpt lat="50.518587" lon="6.248733">
        <ele>494.260000</ele>
        <time>2009-04-26T09:09:12Z</time>
      </trkpt>
      <trkpt lat="50.518495" lon="6.248609">
        <ele>494.260000</ele>
        <time>2009-04-26T09:09:21Z</time>
      </trkpt>
      <trkpt lat="50.518454" lon="6.248582">
        <ele>493.770000</ele>
        <time>2009-04-26T09:09:25Z</time>
      </trkpt>
      <trkpt lat="50.518418" lon="6.248542">
        <ele>493.770000</ele>
        <time>2009-04-26T09:09:28Z</time>
      </trkpt>
      <trkpt lat="50.518346" lon="6.248408">
        <ele>493.770000</ele>
        <time>2009-04-26T09:09:37Z</time>
      </trkpt>
      <trkpt lat="50.518290" lon="6.248461">
        <ele>493.770000</ele>
        <time>2009-04-26T09:09:45Z</time>
      </trkpt>
      <trkpt lat="50.518245" lon="6.248470">
        <ele>493.290000</ele>
        <time>2009-04-26T09:09:47Z</time>
      </trkpt>
      <trkpt lat="50.518230" lon="6.248392">
        <ele>493.770000</ele>
        <time>2009-04-26T09:09:51Z</time>
      </trkpt>
      <trkpt lat="50.518172" lon="6.248332">
        <ele>493.770000</ele>
        <time>2009-04-26T09:09:56Z</time>
      </trkpt>
      <trkpt lat="50.518151" lon="6.248309">
        <ele>493.770000</ele>
        <time>2009-04-26T09:09:58Z</time>
      </trkpt>
      <trkpt lat="50.518091" lon="6.248208">
        <ele>493.770000</ele>
        <time>2009-04-26T09:10:04Z</time>
      </trkpt>
      <trkpt lat="50.518068" lon="6.248164">
        <ele>493.770000</ele>
        <time>2009-04-26T09:10:07Z</time>
      </trkpt>
      <trkpt lat="50.517910" lon="6.248091">
        <ele>493.290000</ele>
        <time>2009-04-26T09:10:19Z</time>
      </trkpt>
      <trkpt lat="50.517795" lon="6.247864">
        <ele>493.290000</ele>
        <time>2009-04-26T09:10:34Z</time>
      </trkpt>
      <trkpt lat="50.517652" lon="6.247554">
        <ele>492.330000</ele>
        <time>2009-04-26T09:10:55Z</time>
      </trkpt>
      <trkpt lat="50.517545" lon="6.247402">
        <ele>491.850000</ele>
        <time>2009-04-26T09:13:16Z</time>
      </trkpt>
      <trkpt lat="50.517535" lon="6.247415">
        <ele>491.850000</ele>
        <time>2009-04-26T09:14:35Z</time>
      </trkpt>
      <trkpt lat="50.517367" lon="6.247413">
        <ele>490.890000</ele>
        <time>2009-04-26T09:14:53Z</time>
      </trkpt>
      <trkpt lat="50.517355" lon="6.247383">
        <ele>491.370000</ele>
        <time>2009-04-26T09:15:09Z</time>
      </trkpt>
      <trkpt lat="50.517305" lon="6.247407">
        <ele>491.850000</ele>
        <time>2009-04-26T09:15:29Z</time>
      </trkpt>
      <trkpt lat="50.517280" lon="6.247353">
        <ele>491.850000</ele>
        <time>2009-04-26T09:15:47Z</time>
      </trkpt>
      <trkpt lat="50.517204" lon="6.247154">
        <ele>491.370000</ele>
        <time>2009-04-26T09:16:05Z</time>
      </trkpt>
      <trkpt lat="50.517046" lon="6.247055">
        <ele>491.850000</ele>
        <time>2009-04-26T09:16:24Z</time>
      </trkpt>
      <trkpt lat="50.516862" lon="6.246836">
        <ele>491.850000</ele>
        <time>2009-04-26T09:16:42Z</time>
      </trkpt>
      <trkpt lat="50.516685" lon="6.246619">
        <ele>492.330000</ele>
        <time>2009-04-26T09:16:59Z</time>
      </trkpt>
      <trkpt lat="50.516666" lon="6.246626">
        <ele>492.330000</ele>
        <time>2009-04-26T09:17:00Z</time>
      </trkpt>
      <trkpt lat="50.516363" lon="6.246514">
        <ele>492.810000</ele>
        <time>2009-04-26T09:17:22Z</time>
      </trkpt>
      <trkpt lat="50.516112" lon="6.246450">
        <ele>493.290000</ele>
        <time>2009-04-26T09:17:40Z</time>
      </trkpt>
      <trkpt lat="50.515876" lon="6.246583">
        <ele>493.290000</ele>
        <time>2009-04-26T09:17:56Z</time>
      </trkpt>
      <trkpt lat="50.515693" lon="6.246533">
        <ele>493.770000</ele>
        <time>2009-04-26T09:18:09Z</time>
      </trkpt>
      <trkpt lat="50.515647" lon="6.246560">
        <ele>493.770000</ele>
        <time>2009-04-26T09:18:17Z</time>
      </trkpt>
      <trkpt lat="50.515514" lon="6.246611">
        <ele>493.770000</ele>
        <time>2009-04-26T09:18:28Z</time>
      </trkpt>
      <trkpt lat="50.515432" lon="6.246590">
        <ele>493.770000</ele>
        <time>2009-04-26T09:18:33Z</time>
      </trkpt>
      <trkpt lat="50.515317" lon="6.246613">
        <ele>494.260000</ele>
        <time>2009-04-26T09:18:44Z</time>
      </trkpt>
      <trkpt lat="50.515111" lon="6.246620">
        <ele>494.740000</ele>
        <time>2009-04-26T09:19:00Z</time>
      </trkpt>
      <trkpt lat="50.514966" lon="6.246645">
        <ele>494.740000</ele>
        <time>2009-04-26T09:19:13Z</time>
      </trkpt>
      <trkpt lat="50.514732" lon="6.246725">
        <ele>495.220000</ele>
        <time>2009-04-26T09:19:32Z</time>
      </trkpt>
      <trkpt lat="50.514602" lon="6.246841">
        <ele>495.220000</ele>
        <time>2009-04-26T09:19:42Z</time>
      </trkpt>
      <trkpt lat="50.514398" lon="6.246900">
        <ele>495.220000</ele>
        <time>2009-04-26T09:19:57Z</time>
      </trkpt>
      <trkpt lat="50.514337" lon="6.246988">
        <ele>495.220000</ele>
        <time>2009-04-26T09:20:09Z</time>
      </trkpt>
      <trkpt lat="50.514274" lon="6.247068">
        <ele>495.700000</ele>
        <time>2009-04-26T09:20:20Z</time>
      </trkpt>
      <trkpt lat="50.514189" lon="6.247252">
        <ele>495.700000</ele>
        <time>2009-04-26T09:20:31Z</time>
      </trkpt>
      <trkpt lat="50.514020" lon="6.247501">
        <ele>496.180000</ele>
        <time>2009-04-26T09:20:51Z</time>
      </trkpt>
      <trkpt lat="50.513919" lon="6.247666">
        <ele>496.660000</ele>
        <time>2009-04-26T09:21:06Z</time>
      </trkpt>
      <trkpt lat="50.513701" lon="6.248204">
        <ele>496.660000</ele>
        <time>2009-04-26T09:21:27Z</time>
      </trkpt>
      <trkpt lat="50.513638" lon="6.248680">
        <ele>496.660000</ele>
        <time>2009-04-26T09:21:50Z</time>
      </trkpt>
      <trkpt lat="50.513634" lon="6.248984">
        <ele>496.180000</ele>
        <time>2009-04-26T09:22:05Z</time>
      </trkpt>
      <trkpt lat="50.513663" lon="6.249166">
        <ele>495.700000</ele>
        <time>2009-04-26T09:22:17Z</time>
      </trkpt>
      <trkpt lat="50.513682" lon="6.249279">
        <ele>495.700000</ele>
        <time>2009-04-26T09:22:23Z</time>
      </trkpt>
      <trkpt lat="50.513695" lon="6.249349">
        <ele>495.700000</ele>
        <time>2009-04-26T09:22:26Z</time>
      </trkpt>
      <trkpt lat="50.513665" lon="6.249439">
        <ele>495.700000</ele>
        <time>2009-04-26T09:22:29Z</time>
      </trkpt>
      <trkpt lat="50.513688" lon="6.249467">
        <ele>495.700000</ele>
        <time>2009-04-26T09:22:31Z</time>
      </trkpt>
      <trkpt lat="50.513697" lon="6.249568">
        <ele>495.700000</ele>
        <time>2009-04-26T09:22:38Z</time>
      </trkpt>
      <trkpt lat="50.513739" lon="6.249652">
        <ele>495.700000</ele>
        <time>2009-04-26T09:22:43Z</time>
      </trkpt>
      <trkpt lat="50.513741" lon="6.249796">
        <ele>495.700000</ele>
        <time>2009-04-26T09:22:49Z</time>
      </trkpt>
      <trkpt lat="50.513748" lon="6.249852">
        <ele>495.700000</ele>
        <time>2009-04-26T09:22:51Z</time>
      </trkpt>
      <trkpt lat="50.513801" lon="6.250136">
        <ele>496.180000</ele>
        <time>2009-04-26T09:23:07Z</time>
      </trkpt>
      <trkpt lat="50.513798" lon="6.250147">
        <ele>495.700000</ele>
        <time>2009-04-26T09:23:08Z</time>
      </trkpt>
      <trkpt lat="50.513832" lon="6.250366">
        <ele>495.700000</ele>
        <time>2009-04-26T09:23:24Z</time>
      </trkpt>
      <trkpt lat="50.513833" lon="6.250523">
        <ele>496.180000</ele>
        <time>2009-04-26T09:23:40Z</time>
      </trkpt>
      <trkpt lat="50.513832" lon="6.250767">
        <ele>496.180000</ele>
        <time>2009-04-26T09:23:59Z</time>
      </trkpt>
      <trkpt lat="50.513916" lon="6.251156">
        <ele>496.660000</ele>
        <time>2009-04-26T09:24:21Z</time>
      </trkpt>
      <trkpt lat="50.513947" lon="6.251235">
        <ele>497.140000</ele>
        <time>2009-04-26T09:24:26Z</time>
      </trkpt>
      <trkpt lat="50.513946" lon="6.251308">
        <ele>496.660000</ele>
        <time>2009-04-26T09:24:36Z</time>
      </trkpt>
      <trkpt lat="50.514000" lon="6.251493">
        <ele>496.660000</ele>
        <time>2009-04-26T09:24:46Z</time>
      </trkpt>
      <trkpt lat="50.514046" lon="6.251695">
        <ele>496.180000</ele>
        <time>2009-04-26T09:24:59Z</time>
      </trkpt>
      <trkpt lat="50.514017" lon="6.251783">
        <ele>496.180000</ele>
        <time>2009-04-26T09:25:05Z</time>
      </trkpt>
      <trkpt lat="50.513995" lon="6.251848">
        <ele>496.180000</ele>
        <time>2009-04-26T09:25:13Z</time>
      </trkpt>
      <trkpt lat="50.513934" lon="6.251898">
        <ele>497.140000</ele>
        <time>2009-04-26T09:27:37Z</time>
      </trkpt>
      <trkpt lat="50.513931" lon="6.251889">
        <ele>497.140000</ele>
        <time>2009-04-26T09:27:38Z</time>
      </trkpt>
      <trkpt lat="50.513826" lon="6.251891">
        <ele>496.660000</ele>
        <time>2009-04-26T09:27:53Z</time>
      </trkpt>
      <trkpt lat="50.513867" lon="6.251946">
        <ele>496.660000</ele>
        <time>2009-04-26T09:28:03Z</time>
      </trkpt>
      <trkpt lat="50.513846" lon="6.251901">
        <ele>496.660000</ele>
        <time>2009-04-26T09:28:21Z</time>
      </trkpt>
      <trkpt lat="50.513866" lon="6.251904">
        <ele>496.660000</ele>
        <time>2009-04-26T09:28:52Z</time>
      </trkpt>
      <trkpt lat="50.513380" lon="6.251255">
        <ele>499.540000</ele>
        <time>2009-04-26T09:32:31Z</time>
      </trkpt>
      <trkpt lat="50.513371" lon="6.251208">
        <ele>500.500000</ele>
        <time>2009-04-26T09:32:42Z</time>
      </trkpt>
      <trkpt lat="50.513479" lon="6.251379">
        <ele>503.390000</ele>
        <time>2009-04-26T09:33:12Z</time>
      </trkpt>
      <trkpt lat="50.513457" lon="6.251366">
        <ele>504.830000</ele>
        <time>2009-04-26T09:33:18Z</time>
      </trkpt>
      <trkpt lat="50.513442" lon="6.251354">
        <ele>505.310000</ele>
        <time>2009-04-26T09:33:21Z</time>
      </trkpt>
      <trkpt lat="50.513401" lon="6.251312">
        <ele>505.790000</ele>
        <time>2009-04-26T09:33:27Z</time>
      </trkpt>
      <trkpt lat="50.513331" lon="6.251043">
        <ele>507.710000</ele>
        <time>2009-04-26T09:33:42Z</time>
      </trkpt>
      <trkpt lat="50.513262" lon="6.250689">
        <ele>508.190000</ele>
        <time>2009-04-26T09:33:57Z</time>
      </trkpt>
      <trkpt lat="50.513120" lon="6.250503">
        <ele>509.640000</ele>
        <time>2009-04-26T09:34:11Z</time>
      </trkpt>
      <trkpt lat="50.512984" lon="6.250433">
        <ele>510.600000</ele>
        <time>2009-04-26T09:34:27Z</time>
      </trkpt>
      <trkpt lat="50.512975" lon="6.250418">
        <ele>510.600000</ele>
        <time>2009-04-26T09:34:28Z</time>
      </trkpt>
      <trkpt lat="50.512899" lon="6.250252">
        <ele>511.560000</ele>
        <time>2009-04-26T09:34:37Z</time>
      </trkpt>
      <trkpt lat="50.512780" lon="6.249997">
        <ele>512.040000</ele>
        <time>2009-04-26T09:34:51Z</time>
      </trkpt>
      <trkpt lat="50.512607" lon="6.249847">
        <ele>511.560000</ele>
        <time>2009-04-26T09:35:06Z</time>
      </trkpt>
      <trkpt lat="50.512420" lon="6.249676">
        <ele>511.560000</ele>
        <time>2009-04-26T09:35:22Z</time>
      </trkpt>
      <trkpt lat="50.512393" lon="6.249585">
        <ele>511.560000</ele>
        <time>2009-04-26T09:35:26Z</time>
      </trkpt>
      <trkpt lat="50.512335" lon="6.249430">
        <ele>511.080000</ele>
        <time>2009-04-26T09:35:34Z</time>
      </trkpt>
      <trkpt lat="50.512226" lon="6.249273">
        <ele>510.600000</ele>
        <time>2009-04-26T09:35:45Z</time>
      </trkpt>
      <trkpt lat="50.512063" lon="6.249047">
        <ele>510.600000</ele>
        <time>2009-04-26T09:36:00Z</time>
      </trkpt>
      <trkpt lat="50.512056" lon="6.249002">
        <ele>510.600000</ele>
        <time>2009-04-26T09:36:02Z</time>
      </trkpt>
      <trkpt lat="50.511909" lon="6.248900">
        <ele>511.080000</ele>
        <time>2009-04-26T09:36:14Z</time>
      </trkpt>
      <trkpt lat="50.511884" lon="6.248835">
        <ele>511.080000</ele>
        <time>2009-04-26T09:36:17Z</time>
      </trkpt>
      <trkpt lat="50.511745" lon="6.248656">
        <ele>512.040000</ele>
        <time>2009-04-26T09:36:32Z</time>
      </trkpt>
      <trkpt lat="50.511721" lon="6.248634">
        <ele>512.520000</ele>
        <time>2009-04-26T09:36:35Z</time>
      </trkpt>
      <trkpt lat="50.511655" lon="6.248590">
        <ele>512.520000</ele>
        <time>2009-04-26T09:36:41Z</time>
      </trkpt>
      <trkpt lat="50.511549" lon="6.248395">
        <ele>512.520000</ele>
        <time>2009-04-26T09:36:53Z</time>
      </trkpt>
      <trkpt lat="50.511467" lon="6.248307">
        <ele>512.520000</ele>
        <time>2009-04-26T09:37:00Z</time>
      </trkpt>
      <trkpt lat="50.511446" lon="6.248278">
        <ele>512.520000</ele>
        <time>2009-04-26T09:37:02Z</time>
      </trkpt>
      <trkpt lat="50.511417" lon="6.248227">
        <ele>512.520000</ele>
        <time>2009-04-26T09:37:06Z</time>
      </trkpt>
      <trkpt lat="50.511270" lon="6.248073">
        <ele>512.520000</ele>
        <time>2009-04-26T09:37:20Z</time>
      </trkpt>
      <trkpt lat="50.511213" lon="6.247998">
        <ele>512.520000</ele>
        <time>2009-04-26T09:37:27Z</time>
      </trkpt>
      <trkpt lat="50.511122" lon="6.247914">
        <ele>512.520000</ele>
        <time>2009-04-26T09:37:34Z</time>
      </trkpt>
      <trkpt lat="50.510959" lon="6.247795">
        <ele>513.000000</ele>
        <time>2009-04-26T09:37:51Z</time>
      </trkpt>
      <trkpt lat="50.510956" lon="6.247742">
        <ele>513.480000</ele>
        <time>2009-04-26T09:37:53Z</time>
      </trkpt>
      <trkpt lat="50.510883" lon="6.247776">
        <ele>513.000000</ele>
        <time>2009-04-26T09:37:57Z</time>
      </trkpt>
      <trkpt lat="50.510845" lon="6.247719">
        <ele>513.480000</ele>
        <time>2009-04-26T09:38:01Z</time>
      </trkpt>
      <trkpt lat="50.510728" lon="6.247540">
        <ele>513.480000</ele>
        <time>2009-04-26T09:38:16Z</time>
      </trkpt>
      <trkpt lat="50.510607" lon="6.247421">
        <ele>513.960000</ele>
        <time>2009-04-26T09:38:29Z</time>
      </trkpt>
      <trkpt lat="50.510447" lon="6.247275">
        <ele>514.440000</ele>
        <time>2009-04-26T09:38:45Z</time>
      </trkpt>
      <trkpt lat="50.510259" lon="6.247183">
        <ele>514.920000</ele>
        <time>2009-04-26T09:39:00Z</time>
      </trkpt>
      <trkpt lat="50.510112" lon="6.247137">
        <ele>514.440000</ele>
        <time>2009-04-26T09:39:14Z</time>
      </trkpt>
      <trkpt lat="50.510105" lon="6.247127">
        <ele>514.440000</ele>
        <time>2009-04-26T09:39:15Z</time>
      </trkpt>
      <trkpt lat="50.509983" lon="6.247111">
        <ele>512.520000</ele>
        <time>2009-04-26T09:39:26Z</time>
      </trkpt>
      <trkpt lat="50.509953" lon="6.247106">
        <ele>512.520000</ele>
        <time>2009-04-26T09:39:29Z</time>
      </trkpt>
      <trkpt lat="50.509780" lon="6.247074">
        <ele>510.600000</ele>
        <time>2009-04-26T09:39:46Z</time>
      </trkpt>
      <trkpt lat="50.509650" lon="6.247022">
        <ele>508.670000</ele>
        <time>2009-04-26T09:39:59Z</time>
      </trkpt>
      <trkpt lat="50.509456" lon="6.247006">
        <ele>507.710000</ele>
        <time>2009-04-26T09:40:15Z</time>
      </trkpt>
      <trkpt lat="50.509285" lon="6.247057">
        <ele>507.710000</ele>
        <time>2009-04-26T09:40:28Z</time>
      </trkpt>
      <trkpt lat="50.509172" lon="6.247070">
        <ele>507.710000</ele>
        <time>2009-04-26T09:40:38Z</time>
      </trkpt>
      <trkpt lat="50.509110" lon="6.247062">
        <ele>508.190000</ele>
        <time>2009-04-26T09:40:44Z</time>
      </trkpt>
      <trkpt lat="50.509089" lon="6.247063">
        <ele>508.190000</ele>
        <time>2009-04-26T09:40:46Z</time>
      </trkpt>
      <trkpt lat="50.508857" lon="6.247096">
        <ele>508.670000</ele>
        <time>2009-04-26T09:41:03Z</time>
      </trkpt>
      <trkpt lat="50.508697" lon="6.247172">
        <ele>509.160000</ele>
        <time>2009-04-26T09:41:17Z</time>
      </trkpt>
      <trkpt lat="50.508619" lon="6.247279">
        <ele>509.160000</ele>
        <time>2009-04-26T09:41:31Z</time>
      </trkpt>
      <trkpt lat="50.508451" lon="6.247379">
        <ele>508.190000</ele>
        <time>2009-04-26T09:41:45Z</time>
      </trkpt>
      <trkpt lat="50.508375" lon="6.247442">
        <ele>508.190000</ele>
        <time>2009-04-26T09:41:51Z</time>
      </trkpt>
      <trkpt lat="50.508319" lon="6.247548">
        <ele>508.190000</ele>
        <time>2009-04-26T09:41:58Z</time>
      </trkpt>
      <trkpt lat="50.508257" lon="6.247731">
        <ele>508.190000</ele>
        <time>2009-04-26T09:42:09Z</time>
      </trkpt>
      <trkpt lat="50.508220" lon="6.248047">
        <ele>508.670000</ele>
        <time>2009-04-26T09:42:25Z</time>
      </trkpt>
      <trkpt lat="50.508200" lon="6.248195">
        <ele>508.670000</ele>
        <time>2009-04-26T09:42:32Z</time>
      </trkpt>
      <trkpt lat="50.508156" lon="6.248392">
        <ele>508.670000</ele>
        <time>2009-04-26T09:42:44Z</time>
      </trkpt>
      <trkpt lat="50.508176" lon="6.248596">
        <ele>509.640000</ele>
        <time>2009-04-26T09:42:58Z</time>
      </trkpt>
      <trkpt lat="50.508289" lon="6.248695">
        <ele>508.670000</ele>
        <time>2009-04-26T09:43:12Z</time>
      </trkpt>
      <trkpt lat="50.508467" lon="6.248733">
        <ele>507.710000</ele>
        <time>2009-04-26T09:43:27Z</time>
      </trkpt>
      <trkpt lat="50.508488" lon="6.248707">
        <ele>507.230000</ele>
        <time>2009-04-26T09:43:43Z</time>
      </trkpt>
      <trkpt lat="50.508492" lon="6.248658">
        <ele>507.230000</ele>
        <time>2009-04-26T09:44:06Z</time>
      </trkpt>
      <trkpt lat="50.508436" lon="6.248695">
        <ele>508.190000</ele>
        <time>2009-04-26T09:44:23Z</time>
      </trkpt>
      <trkpt lat="50.508540" lon="6.248726">
        <ele>508.190000</ele>
        <time>2009-04-26T09:44:38Z</time>
      </trkpt>
      <trkpt lat="50.508611" lon="6.248779">
        <ele>507.710000</ele>
        <time>2009-04-26T09:45:01Z</time>
      </trkpt>
      <trkpt lat="50.508654" lon="6.248815">
        <ele>508.190000</ele>
        <time>2009-04-26T09:45:17Z</time>
      </trkpt>
      <trkpt lat="50.508669" lon="6.248805">
        <ele>507.710000</ele>
        <time>2009-04-26T09:45:26Z</time>
      </trkpt>
      <trkpt lat="50.508766" lon="6.248689">
        <ele>508.670000</ele>
        <time>2009-04-26T09:45:45Z</time>
      </trkpt>
      <trkpt lat="50.508807" lon="6.248682">
        <ele>508.670000</ele>
        <time>2009-04-26T09:45:52Z</time>
      </trkpt>
      <trkpt lat="50.508883" lon="6.248603">
        <ele>509.160000</ele>
        <time>2009-04-26T09:46:09Z</time>
      </trkpt>
      <trkpt lat="50.508946" lon="6.248612">
        <ele>509.160000</ele>
        <time>2009-04-26T09:46:20Z</time>
      </trkpt>
      <trkpt lat="50.509042" lon="6.248600">
        <ele>508.670000</ele>
        <time>2009-04-26T09:46:38Z</time>
      </trkpt>
      <trkpt lat="50.509291" lon="6.248583">
        <ele>508.670000</ele>
        <time>2009-04-26T09:47:01Z</time>
      </trkpt>
      <trkpt lat="50.509598" lon="6.248610">
        <ele>508.670000</ele>
        <time>2009-04-26T09:47:25Z</time>
      </trkpt>
      <trkpt lat="50.509693" lon="6.248670">
        <ele>508.670000</ele>
        <time>2009-04-26T09:47:42Z</time>
      </trkpt>
      <trkpt lat="50.509647" lon="6.248698">
        <ele>511.080000</ele>
        <time>2009-04-26T09:48:05Z</time>
      </trkpt>
      <trkpt lat="50.509661" lon="6.248645">
        <ele>508.670000</ele>
        <time>2009-04-26T09:48:28Z</time>
      </trkpt>
      <trkpt lat="50.509761" lon="6.248647">
        <ele>508.190000</ele>
        <time>2009-04-26T09:48:41Z</time>
      </trkpt>
      <trkpt lat="50.509764" lon="6.248579">
        <ele>506.270000</ele>
        <time>2009-04-26T09:48:54Z</time>
      </trkpt>
      <trkpt lat="50.509803" lon="6.248414">
        <ele>505.790000</ele>
        <time>2009-04-26T09:49:12Z</time>
      </trkpt>
      <trkpt lat="50.509877" lon="6.248495">
        <ele>508.190000</ele>
        <time>2009-04-26T09:49:36Z</time>
      </trkpt>
      <trkpt lat="50.510031" lon="6.248645">
        <ele>508.190000</ele>
        <time>2009-04-26T09:49:53Z</time>
      </trkpt>
      <trkpt lat="50.510066" lon="6.248633">
        <ele>508.190000</ele>
        <time>2009-04-26T09:49:56Z</time>
      </trkpt>
      <trkpt lat="50.510203" lon="6.248563">
        <ele>507.710000</ele>
        <time>2009-04-26T09:50:11Z</time>
      </trkpt>
      <trkpt lat="50.510278" lon="6.248532">
        <ele>507.710000</ele>
        <time>2009-04-26T09:50:16Z</time>
      </trkpt>
      <trkpt lat="50.510462" lon="6.248618">
        <ele>507.710000</ele>
        <time>2009-04-26T09:50:31Z</time>
      </trkpt>
      <trkpt lat="50.510492" lon="6.248654">
        <ele>507.230000</ele>
        <time>2009-04-26T09:50:34Z</time>
      </trkpt>
      <trkpt lat="50.510656" lon="6.248809">
        <ele>507.710000</ele>
        <time>2009-04-26T09:50:48Z</time>
      </trkpt>
      <trkpt lat="50.510833" lon="6.249004">
        <ele>507.710000</ele>
        <time>2009-04-26T09:51:02Z</time>
      </trkpt>
      <trkpt lat="50.510870" lon="6.249014">
        <ele>507.710000</ele>
        <time>2009-04-26T09:51:05Z</time>
      </trkpt>
      <trkpt lat="50.510890" lon="6.249027">
        <ele>507.710000</ele>
        <time>2009-04-26T09:51:07Z</time>
      </trkpt>
      <trkpt lat="50.510927" lon="6.249078">
        <ele>507.710000</ele>
        <time>2009-04-26T09:51:11Z</time>
      </trkpt>
      <trkpt lat="50.511121" lon="6.249416">
        <ele>507.710000</ele>
        <time>2009-04-26T09:51:30Z</time>
      </trkpt>
      <trkpt lat="50.511210" lon="6.249630">
        <ele>508.670000</ele>
        <time>2009-04-26T09:51:40Z</time>
      </trkpt>
      <trkpt lat="50.511312" lon="6.249701">
        <ele>508.670000</ele>
        <time>2009-04-26T09:51:47Z</time>
      </trkpt>
      <trkpt lat="50.511430" lon="6.249898">
        <ele>509.640000</ele>
        <time>2009-04-26T09:52:00Z</time>
      </trkpt>
      <trkpt lat="50.511505" lon="6.249985">
        <ele>509.640000</ele>
        <time>2009-04-26T09:52:07Z</time>
      </trkpt>
      <trkpt lat="50.511571" lon="6.250081">
        <ele>509.640000</ele>
        <time>2009-04-26T09:52:14Z</time>
      </trkpt>
      <trkpt lat="50.511626" lon="6.250120">
        <ele>510.120000</ele>
        <time>2009-04-26T09:52:18Z</time>
      </trkpt>
      <trkpt lat="50.511738" lon="6.250324">
        <ele>510.120000</ele>
        <time>2009-04-26T09:52:31Z</time>
      </trkpt>
      <trkpt lat="50.511716" lon="6.250488">
        <ele>509.640000</ele>
        <time>2009-04-26T09:52:38Z</time>
      </trkpt>
      <trkpt lat="50.511833" lon="6.250661">
        <ele>508.190000</ele>
        <time>2009-04-26T09:52:52Z</time>
      </trkpt>
      <trkpt lat="50.512014" lon="6.250768">
        <ele>506.750000</ele>
        <time>2009-04-26T09:53:10Z</time>
      </trkpt>
      <trkpt lat="50.512243" lon="6.251171">
        <ele>506.270000</ele>
        <time>2009-04-26T09:53:29Z</time>
      </trkpt>
      <trkpt lat="50.512369" lon="6.251368">
        <ele>505.790000</ele>
        <time>2009-04-26T09:53:43Z</time>
      </trkpt>
      <trkpt lat="50.512505" lon="6.251636">
        <ele>505.790000</ele>
        <time>2009-04-26T09:54:00Z</time>
      </trkpt>
      <trkpt lat="50.512612" lon="6.251835">
        <ele>505.790000</ele>
        <time>2009-04-26T09:54:12Z</time>
      </trkpt>
      <trkpt lat="50.512651" lon="6.251913">
        <ele>505.310000</ele>
        <time>2009-04-26T09:54:17Z</time>
      </trkpt>
      <trkpt lat="50.512764" lon="6.252062">
        <ele>505.310000</ele>
        <time>2009-04-26T09:54:32Z</time>
      </trkpt>
      <trkpt lat="50.512819" lon="6.252203">
        <ele>504.830000</ele>
        <time>2009-04-26T09:54:51Z</time>
      </trkpt>
      <trkpt lat="50.512842" lon="6.252258">
        <ele>505.310000</ele>
        <time>2009-04-26T09:55:10Z</time>
      </trkpt>
      <trkpt lat="50.512936" lon="6.252262">
        <ele>504.350000</ele>
        <time>2009-04-26T09:55:34Z</time>
      </trkpt>
      <trkpt lat="50.512949" lon="6.252271">
        <ele>503.870000</ele>
        <time>2009-04-26T09:55:35Z</time>
      </trkpt>
      <trkpt lat="50.513056" lon="6.252540">
        <ele>503.870000</ele>
        <time>2009-04-26T09:55:50Z</time>
      </trkpt>
      <trkpt lat="50.513157" lon="6.252655">
        <ele>504.830000</ele>
        <time>2009-04-26T09:56:02Z</time>
      </trkpt>
      <trkpt lat="50.513403" lon="6.252790">
        <ele>504.350000</ele>
        <time>2009-04-26T09:56:20Z</time>
      </trkpt>
      <trkpt lat="50.513644" lon="6.252932">
        <ele>503.390000</ele>
        <time>2009-04-26T09:56:37Z</time>
      </trkpt>
      <trkpt lat="50.513830" lon="6.252951">
        <ele>502.910000</ele>
        <time>2009-04-26T09:56:53Z</time>
      </trkpt>
      <trkpt lat="50.513925" lon="6.252932">
        <ele>502.910000</ele>
        <time>2009-04-26T09:57:02Z</time>
      </trkpt>
      <trkpt lat="50.514078" lon="6.252914">
        <ele>502.910000</ele>
        <time>2009-04-26T09:57:10Z</time>
      </trkpt>
      <trkpt lat="50.514135" lon="6.252891">
        <ele>503.390000</ele>
        <time>2009-04-26T09:57:15Z</time>
      </trkpt>
      <trkpt lat="50.514283" lon="6.252933">
        <ele>503.390000</ele>
        <time>2009-04-26T09:57:27Z</time>
      </trkpt>
      <trkpt lat="50.514514" lon="6.252798">
        <ele>503.870000</ele>
        <time>2009-04-26T09:57:47Z</time>
      </trkpt>
      <trkpt lat="50.514618" lon="6.252624">
        <ele>503.870000</ele>
        <time>2009-04-26T09:57:57Z</time>
      </trkpt>
      <trkpt lat="50.514666" lon="6.252486">
        <ele>504.350000</ele>
        <time>2009-04-26T09:58:10Z</time>
      </trkpt>
      <trkpt lat="50.514670" lon="6.252465">
        <ele>504.350000</ele>
        <time>2009-04-26T09:58:12Z</time>
      </trkpt>
      <trkpt lat="50.514749" lon="6.252149">
        <ele>504.830000</ele>
        <time>2009-04-26T09:58:32Z</time>
      </trkpt>
      <trkpt lat="50.514769" lon="6.251960">
        <ele>504.830000</ele>
        <time>2009-04-26T09:58:43Z</time>
      </trkpt>
      <trkpt lat="50.514755" lon="6.251825">
        <ele>505.310000</ele>
        <time>2009-04-26T09:58:48Z</time>
      </trkpt>
      <trkpt lat="50.514752" lon="6.251543">
        <ele>504.350000</ele>
        <time>2009-04-26T09:59:02Z</time>
      </trkpt>
      <trkpt lat="50.514758" lon="6.251439">
        <ele>504.350000</ele>
        <time>2009-04-26T09:59:07Z</time>
      </trkpt>
      <trkpt lat="50.514748" lon="6.251205">
        <ele>503.390000</ele>
        <time>2009-04-26T09:59:22Z</time>
      </trkpt>
      <trkpt lat="50.514775" lon="6.251100">
        <ele>503.390000</ele>
        <time>2009-04-26T09:59:25Z</time>
      </trkpt>
      <trkpt lat="50.514742" lon="6.250853">
        <ele>503.390000</ele>
        <time>2009-04-26T09:59:36Z</time>
      </trkpt>
      <trkpt lat="50.514742" lon="6.250835">
        <ele>503.390000</ele>
        <time>2009-04-26T09:59:37Z</time>
      </trkpt>
      <trkpt lat="50.514736" lon="6.250747">
        <ele>503.390000</ele>
        <time>2009-04-26T09:59:41Z</time>
      </trkpt>
      <trkpt lat="50.514731" lon="6.250410">
        <ele>502.910000</ele>
        <time>2009-04-26T09:59:57Z</time>
      </trkpt>
      <trkpt lat="50.514743" lon="6.250148">
        <ele>502.910000</ele>
        <time>2009-04-26T10:00:10Z</time>
      </trkpt>
      <trkpt lat="50.514660" lon="6.249863">
        <ele>502.430000</ele>
        <time>2009-04-26T10:00:24Z</time>
      </trkpt>
      <trkpt lat="50.514568" lon="6.249706">
        <ele>502.430000</ele>
        <time>2009-04-26T10:00:33Z</time>
      </trkpt>
      <trkpt lat="50.514557" lon="6.249613">
        <ele>502.430000</ele>
        <time>2009-04-26T10:00:39Z</time>
      </trkpt>
      <trkpt lat="50.514525" lon="6.249510">
        <ele>501.460000</ele>
        <time>2009-04-26T10:00:44Z</time>
      </trkpt>
      <trkpt lat="50.514566" lon="6.249220">
        <ele>500.980000</ele>
        <time>2009-04-26T10:01:00Z</time>
      </trkpt>
      <trkpt lat="50.514566" lon="6.249187">
        <ele>500.980000</ele>
        <time>2009-04-26T10:01:02Z</time>
      </trkpt>
      <trkpt lat="50.514638" lon="6.248928">
        <ele>500.980000</ele>
        <time>2009-04-26T10:01:15Z</time>
      </trkpt>
      <trkpt lat="50.514655" lon="6.248871">
        <ele>500.980000</ele>
        <time>2009-04-26T10:01:18Z</time>
      </trkpt>
      <trkpt lat="50.514843" lon="6.248720">
        <ele>500.980000</ele>
        <time>2009-04-26T10:01:32Z</time>
      </trkpt>
      <trkpt lat="50.514943" lon="6.248671">
        <ele>500.980000</ele>
        <time>2009-04-26T10:01:39Z</time>
      </trkpt>
      <trkpt lat="50.514981" lon="6.248616">
        <ele>500.980000</ele>
        <time>2009-04-26T10:01:44Z</time>
      </trkpt>
      <trkpt lat="50.515201" lon="6.248533">
        <ele>500.980000</ele>
        <time>2009-04-26T10:01:59Z</time>
      </trkpt>
      <trkpt lat="50.515292" lon="6.248428">
        <ele>500.980000</ele>
        <time>2009-04-26T10:02:12Z</time>
      </trkpt>
      <trkpt lat="50.515367" lon="6.248339">
        <ele>500.980000</ele>
        <time>2009-04-26T10:02:31Z</time>
      </trkpt>
      <trkpt lat="50.515638" lon="6.248253">
        <ele>500.500000</ele>
        <time>2009-04-26T10:02:50Z</time>
      </trkpt>
      <trkpt lat="50.515738" lon="6.248235">
        <ele>499.540000</ele>
        <time>2009-04-26T10:02:58Z</time>
      </trkpt>
      <trkpt lat="50.515751" lon="6.248168">
        <ele>499.540000</ele>
        <time>2009-04-26T10:03:02Z</time>
      </trkpt>
      <trkpt lat="50.515768" lon="6.248130">
        <ele>499.540000</ele>
        <time>2009-04-26T10:03:05Z</time>
      </trkpt>
      <trkpt lat="50.515903" lon="6.248066">
        <ele>498.580000</ele>
        <time>2009-04-26T10:03:16Z</time>
      </trkpt>
      <trkpt lat="50.516085" lon="6.248050">
        <ele>497.140000</ele>
        <time>2009-04-26T10:03:31Z</time>
      </trkpt>
      <trkpt lat="50.516249" lon="6.248102">
        <ele>497.140000</ele>
        <time>2009-04-26T10:03:40Z</time>
      </trkpt>
      <trkpt lat="50.516317" lon="6.248082">
        <ele>497.140000</ele>
        <time>2009-04-26T10:03:50Z</time>
      </trkpt>
      <trkpt lat="50.516513" lon="6.248107">
        <ele>496.660000</ele>
        <time>2009-04-26T10:04:06Z</time>
      </trkpt>
      <trkpt lat="50.516565" lon="6.248110">
        <ele>497.140000</ele>
        <time>2009-04-26T10:04:10Z</time>
      </trkpt>
      <trkpt lat="50.516735" lon="6.248178">
        <ele>498.100000</ele>
        <time>2009-04-26T10:04:24Z</time>
      </trkpt>
      <trkpt lat="50.516812" lon="6.248272">
        <ele>497.140000</ele>
        <time>2009-04-26T10:04:36Z</time>
      </trkpt>
      <trkpt lat="50.516896" lon="6.248369">
        <ele>497.140000</ele>
        <time>2009-04-26T10:04:53Z</time>
      </trkpt>
      <trkpt lat="50.517144" lon="6.248561">
        <ele>497.620000</ele>
        <time>2009-04-26T10:05:12Z</time>
      </trkpt>
      <trkpt lat="50.517201" lon="6.248587">
        <ele>497.140000</ele>
        <time>2009-04-26T10:05:31Z</time>
      </trkpt>
      <trkpt lat="50.517363" lon="6.248775">
        <ele>497.140000</ele>
        <time>2009-04-26T10:05:43Z</time>
      </trkpt>
      <trkpt lat="50.517411" lon="6.248884">
        <ele>497.140000</ele>
        <time>2009-04-26T10:05:56Z</time>
      </trkpt>
      <trkpt lat="50.517586" lon="6.249083">
        <ele>498.100000</ele>
        <time>2009-04-26T10:06:11Z</time>
      </trkpt>
      <trkpt lat="50.517652" lon="6.249189">
        <ele>499.060000</ele>
        <time>2009-04-26T10:06:19Z</time>
      </trkpt>
      <trkpt lat="50.517770" lon="6.249223">
        <ele>500.020000</ele>
        <time>2009-04-26T10:06:32Z</time>
      </trkpt>
      <trkpt lat="50.517793" lon="6.249277">
        <ele>499.540000</ele>
        <time>2009-04-26T10:06:53Z</time>
      </trkpt>
      <trkpt lat="50.517782" lon="6.249396">
        <ele>500.020000</ele>
        <time>2009-04-26T10:06:57Z</time>
      </trkpt>
      <trkpt lat="50.517823" lon="6.249413">
        <ele>500.500000</ele>
        <time>2009-04-26T10:07:01Z</time>
      </trkpt>
      <trkpt lat="50.517850" lon="6.249461">
        <ele>500.500000</ele>
        <time>2009-04-26T10:07:09Z</time>
      </trkpt>
      <trkpt lat="50.517972" lon="6.249653">
        <ele>500.980000</ele>
        <time>2009-04-26T10:07:21Z</time>
      </trkpt>
      <trkpt lat="50.518041" lon="6.249796">
        <ele>501.950000</ele>
        <time>2009-04-26T10:07:30Z</time>
      </trkpt>
      <trkpt lat="50.518142" lon="6.249970">
        <ele>502.910000</ele>
        <time>2009-04-26T10:07:44Z</time>
      </trkpt>
      <trkpt lat="50.518226" lon="6.250055">
        <ele>503.390000</ele>
        <time>2009-04-26T10:07:52Z</time>
      </trkpt>
      <trkpt lat="50.518311" lon="6.250035">
        <ele>503.870000</ele>
        <time>2009-04-26T10:08:05Z</time>
      </trkpt>
      <trkpt lat="50.518302" lon="6.250133">
        <ele>503.390000</ele>
        <time>2009-04-26T10:08:19Z</time>
      </trkpt>
      <trkpt lat="50.518358" lon="6.250182">
        <ele>503.870000</ele>
        <time>2009-04-26T10:08:24Z</time>
      </trkpt>
      <trkpt lat="50.518430" lon="6.250305">
        <ele>503.870000</ele>
        <time>2009-04-26T10:08:34Z</time>
      </trkpt>
      <trkpt lat="50.518449" lon="6.250365">
        <ele>503.870000</ele>
        <time>2009-04-26T10:08:38Z</time>
      </trkpt>
      <trkpt lat="50.518500" lon="6.250431">
        <ele>504.350000</ele>
        <time>2009-04-26T10:08:45Z</time>
      </trkpt>
      <trkpt lat="50.518645" lon="6.250584">
        <ele>504.830000</ele>
        <time>2009-04-26T10:08:58Z</time>
      </trkpt>
      <trkpt lat="50.518829" lon="6.250751">
        <ele>504.830000</ele>
        <time>2009-04-26T10:09:13Z</time>
      </trkpt>
      <trkpt lat="50.518976" lon="6.250930">
        <ele>504.830000</ele>
        <time>2009-04-26T10:09:29Z</time>
      </trkpt>
      <trkpt lat="50.519068" lon="6.250901">
        <ele>504.350000</ele>
        <time>2009-04-26T10:09:42Z</time>
      </trkpt>
      <trkpt lat="50.519233" lon="6.250980">
        <ele>502.910000</ele>
        <time>2009-04-26T10:09:56Z</time>
      </trkpt>
      <trkpt lat="50.519245" lon="6.250964">
        <ele>502.430000</ele>
        <time>2009-04-26T10:09:58Z</time>
      </trkpt>
      <trkpt lat="50.519375" lon="6.251002">
        <ele>501.950000</ele>
        <time>2009-04-26T10:10:10Z</time>
      </trkpt>
      <trkpt lat="50.519553" lon="6.251103">
        <ele>499.060000</ele>
        <time>2009-04-26T10:10:25Z</time>
      </trkpt>
      <trkpt lat="50.519717" lon="6.251115">
        <ele>497.620000</ele>
        <time>2009-04-26T10:10:39Z</time>
      </trkpt>
      <trkpt lat="50.519877" lon="6.251099">
        <ele>495.700000</ele>
        <time>2009-04-26T10:10:53Z</time>
      </trkpt>
      <trkpt lat="50.520042" lon="6.251103">
        <ele>494.740000</ele>
        <time>2009-04-26T10:11:06Z</time>
      </trkpt>
      <trkpt lat="50.520142" lon="6.251102">
        <ele>494.260000</ele>
        <time>2009-04-26T10:11:14Z</time>
      </trkpt>
      <trkpt lat="50.520337" lon="6.251198">
        <ele>493.290000</ele>
        <time>2009-04-26T10:11:28Z</time>
      </trkpt>
      <trkpt lat="50.520488" lon="6.251218">
        <ele>492.810000</ele>
        <time>2009-04-26T10:11:40Z</time>
      </trkpt>
      <trkpt lat="50.520709" lon="6.251358">
        <ele>492.330000</ele>
        <time>2009-04-26T10:11:56Z</time>
      </trkpt>
      <trkpt lat="50.520769" lon="6.251345">
        <ele>492.810000</ele>
        <time>2009-04-26T10:12:02Z</time>
      </trkpt>
      <trkpt lat="50.520906" lon="6.251466">
        <ele>492.810000</ele>
        <time>2009-04-26T10:12:12Z</time>
      </trkpt>
      <trkpt lat="50.521045" lon="6.251576">
        <ele>492.810000</ele>
        <time>2009-04-26T10:12:25Z</time>
      </trkpt>
      <trkpt lat="50.521099" lon="6.251628">
        <ele>492.810000</ele>
        <time>2009-04-26T10:12:29Z</time>
      </trkpt>
      <trkpt lat="50.521149" lon="6.251704">
        <ele>492.810000</ele>
        <time>2009-04-26T10:12:34Z</time>
      </trkpt>
      <trkpt lat="50.521195" lon="6.251742">
        <ele>492.810000</ele>
        <time>2009-04-26T10:12:39Z</time>
      </trkpt>
      <trkpt lat="50.521355" lon="6.251860">
        <ele>492.810000</ele>
        <time>2009-04-26T10:12:52Z</time>
      </trkpt>
      <trkpt lat="50.521485" lon="6.252077">
        <ele>492.810000</ele>
        <time>2009-04-26T10:13:06Z</time>
      </trkpt>
      <trkpt lat="50.521543" lon="6.252168">
        <ele>492.810000</ele>
        <time>2009-04-26T10:13:12Z</time>
      </trkpt>
      <trkpt lat="50.521631" lon="6.252344">
        <ele>493.770000</ele>
        <time>2009-04-26T10:13:24Z</time>
      </trkpt>
      <trkpt lat="50.521719" lon="6.252398">
        <ele>493.770000</ele>
        <time>2009-04-26T10:13:31Z</time>
      </trkpt>
      <trkpt lat="50.521778" lon="6.252438">
        <ele>493.770000</ele>
        <time>2009-04-26T10:13:35Z</time>
      </trkpt>
      <trkpt lat="50.521791" lon="6.252473">
        <ele>493.770000</ele>
        <time>2009-04-26T10:13:37Z</time>
      </trkpt>
      <trkpt lat="50.521883" lon="6.252603">
        <ele>493.770000</ele>
        <time>2009-04-26T10:13:45Z</time>
      </trkpt>
      <trkpt lat="50.522027" lon="6.252826">
        <ele>494.740000</ele>
        <time>2009-04-26T10:14:00Z</time>
      </trkpt>
      <trkpt lat="50.522058" lon="6.252834">
        <ele>494.740000</ele>
        <time>2009-04-26T10:14:02Z</time>
      </trkpt>
      <trkpt lat="50.522093" lon="6.252873">
        <ele>495.220000</ele>
        <time>2009-04-26T10:14:06Z</time>
      </trkpt>
      <trkpt lat="50.522103" lon="6.252912">
        <ele>495.220000</ele>
        <time>2009-04-26T10:14:08Z</time>
      </trkpt>
      <trkpt lat="50.522110" lon="6.252984">
        <ele>495.700000</ele>
        <time>2009-04-26T10:14:12Z</time>
      </trkpt>
      <trkpt lat="50.522159" lon="6.253050">
        <ele>495.700000</ele>
        <time>2009-04-26T10:14:17Z</time>
      </trkpt>
      <trkpt lat="50.522233" lon="6.253124">
        <ele>495.700000</ele>
        <time>2009-04-26T10:14:22Z</time>
      </trkpt>
      <trkpt lat="50.522371" lon="6.253357">
        <ele>494.260000</ele>
        <time>2009-04-26T10:14:38Z</time>
      </trkpt>
      <trkpt lat="50.522458" lon="6.253509">
        <ele>493.290000</ele>
        <time>2009-04-26T10:14:48Z</time>
      </trkpt>
      <trkpt lat="50.522541" lon="6.253626">
        <ele>493.290000</ele>
        <time>2009-04-26T10:14:56Z</time>
      </trkpt>
      <trkpt lat="50.522682" lon="6.253800">
        <ele>492.810000</ele>
        <time>2009-04-26T10:15:09Z</time>
      </trkpt>
      <trkpt lat="50.522767" lon="6.254037">
        <ele>492.330000</ele>
        <time>2009-04-26T10:15:22Z</time>
      </trkpt>
      <trkpt lat="50.522855" lon="6.254319">
        <ele>491.370000</ele>
        <time>2009-04-26T10:15:38Z</time>
      </trkpt>
      <trkpt lat="50.522879" lon="6.254360">
        <ele>490.890000</ele>
        <time>2009-04-26T10:15:42Z</time>
      </trkpt>
      <trkpt lat="50.522894" lon="6.254324">
        <ele>489.930000</ele>
        <time>2009-04-26T10:16:05Z</time>
      </trkpt>
      <trkpt lat="50.522972" lon="6.254452">
        <ele>489.450000</ele>
        <time>2009-04-26T10:16:18Z</time>
      </trkpt>
      <trkpt lat="50.523087" lon="6.254680">
        <ele>487.530000</ele>
        <time>2009-04-26T10:16:35Z</time>
      </trkpt>
      <trkpt lat="50.523170" lon="6.254985">
        <ele>488.490000</ele>
        <time>2009-04-26T10:16:52Z</time>
      </trkpt>
      <trkpt lat="50.523186" lon="6.255089">
        <ele>488.010000</ele>
        <time>2009-04-26T10:17:08Z</time>
      </trkpt>
      <trkpt lat="50.523336" lon="6.255288">
        <ele>488.010000</ele>
        <time>2009-04-26T10:17:23Z</time>
      </trkpt>
      <trkpt lat="50.523363" lon="6.255604">
        <ele>487.050000</ele>
        <time>2009-04-26T10:17:35Z</time>
      </trkpt>
      <trkpt lat="50.523377" lon="6.255715">
        <ele>487.050000</ele>
        <time>2009-04-26T10:17:40Z</time>
      </trkpt>
      <trkpt lat="50.523337" lon="6.255998">
        <ele>486.080000</ele>
        <time>2009-04-26T10:17:54Z</time>
      </trkpt>
      <trkpt lat="50.523279" lon="6.256246">
        <ele>486.080000</ele>
        <time>2009-04-26T10:18:07Z</time>
      </trkpt>
      <trkpt lat="50.523258" lon="6.256292">
        <ele>485.600000</ele>
        <time>2009-04-26T10:18:11Z</time>
      </trkpt>
      <trkpt lat="50.523271" lon="6.256319">
        <ele>486.560000</ele>
        <time>2009-04-26T10:18:31Z</time>
      </trkpt>
      <trkpt lat="50.523312" lon="6.256466">
        <ele>486.560000</ele>
        <time>2009-04-26T10:18:50Z</time>
      </trkpt>
      <trkpt lat="50.523346" lon="6.256488">
        <ele>487.050000</ele>
        <time>2009-04-26T10:19:12Z</time>
      </trkpt>
      <trkpt lat="50.523501" lon="6.256328">
        <ele>486.080000</ele>
        <time>2009-04-26T10:19:39Z</time>
      </trkpt>
      <trkpt lat="50.523597" lon="6.256228">
        <ele>485.600000</ele>
        <time>2009-04-26T10:19:55Z</time>
      </trkpt>
      <trkpt lat="50.523668" lon="6.256302">
        <ele>485.600000</ele>
        <time>2009-04-26T10:20:12Z</time>
      </trkpt>
      <trkpt lat="50.523791" lon="6.256471">
        <ele>485.120000</ele>
        <time>2009-04-26T10:20:33Z</time>
      </trkpt>
      <trkpt lat="50.523937" lon="6.256461">
        <ele>485.120000</ele>
        <time>2009-04-26T10:20:53Z</time>
      </trkpt>
      <trkpt lat="50.524054" lon="6.256301">
        <ele>486.080000</ele>
        <time>2009-04-26T10:21:07Z</time>
      </trkpt>
      <trkpt lat="50.524224" lon="6.256354">
        <ele>486.080000</ele>
        <time>2009-04-26T10:21:26Z</time>
      </trkpt>
      <trkpt lat="50.524350" lon="6.256426">
        <ele>485.600000</ele>
        <time>2009-04-26T10:21:45Z</time>
      </trkpt>
      <trkpt lat="50.524552" lon="6.256389">
        <ele>484.640000</ele>
        <time>2009-04-26T10:22:03Z</time>
      </trkpt>
      <trkpt lat="50.524644" lon="6.256558">
        <ele>485.120000</ele>
        <time>2009-04-26T10:22:21Z</time>
      </trkpt>
      <trkpt lat="50.524846" lon="6.256409">
        <ele>485.600000</ele>
        <time>2009-04-26T10:22:40Z</time>
      </trkpt>
      <trkpt lat="50.524908" lon="6.256334">
        <ele>485.600000</ele>
        <time>2009-04-26T10:23:02Z</time>
      </trkpt>
      <trkpt lat="50.525037" lon="6.256385">
        <ele>486.080000</ele>
        <time>2009-04-26T10:23:17Z</time>
      </trkpt>
      <trkpt lat="50.525183" lon="6.256484">
        <ele>485.600000</ele>
        <time>2009-04-26T10:23:37Z</time>
      </trkpt>
      <trkpt lat="50.525317" lon="6.256435">
        <ele>486.080000</ele>
        <time>2009-04-26T10:23:54Z</time>
      </trkpt>
      <trkpt lat="50.525430" lon="6.256402">
        <ele>486.080000</ele>
        <time>2009-04-26T10:24:15Z</time>
      </trkpt>
      <trkpt lat="50.525530" lon="6.256524">
        <ele>486.560000</ele>
        <time>2009-04-26T10:24:35Z</time>
      </trkpt>
      <trkpt lat="50.525743" lon="6.256557">
        <ele>487.050000</ele>
        <time>2009-04-26T10:24:57Z</time>
      </trkpt>
      <trkpt lat="50.525856" lon="6.256560">
        <ele>488.490000</ele>
        <time>2009-04-26T10:25:15Z</time>
      </trkpt>
      <trkpt lat="50.526063" lon="6.256519">
        <ele>489.450000</ele>
        <time>2009-04-26T10:25:29Z</time>
      </trkpt>
      <trkpt lat="50.526165" lon="6.256260">
        <ele>489.930000</ele>
        <time>2009-04-26T10:25:52Z</time>
      </trkpt>
      <trkpt lat="50.526410" lon="6.256106">
        <ele>491.370000</ele>
        <time>2009-04-26T10:26:06Z</time>
      </trkpt>
      <trkpt lat="50.526427" lon="6.256044">
        <ele>491.370000</ele>
        <time>2009-04-26T10:26:21Z</time>
      </trkpt>
      <trkpt lat="50.526668" lon="6.255677">
        <ele>489.450000</ele>
        <time>2009-04-26T10:44:32Z</time>
      </trkpt>
      <trkpt lat="50.526690" lon="6.255363">
        <ele>488.490000</ele>
        <time>2009-04-26T10:44:54Z</time>
      </trkpt>
      <trkpt lat="50.526670" lon="6.255172">
        <ele>488.010000</ele>
        <time>2009-04-26T10:45:04Z</time>
      </trkpt>
      <trkpt lat="50.526690" lon="6.254949">
        <ele>487.530000</ele>
        <time>2009-04-26T10:45:17Z</time>
      </trkpt>
      <trkpt lat="50.526643" lon="6.254741">
        <ele>487.530000</ele>
        <time>2009-04-26T10:45:30Z</time>
      </trkpt>
      <trkpt lat="50.526627" lon="6.254553">
        <ele>487.530000</ele>
        <time>2009-04-26T10:45:43Z</time>
      </trkpt>
      <trkpt lat="50.526529" lon="6.254321">
        <ele>487.050000</ele>
        <time>2009-04-26T10:45:56Z</time>
      </trkpt>
      <trkpt lat="50.526412" lon="6.253995">
        <ele>486.080000</ele>
        <time>2009-04-26T10:46:17Z</time>
      </trkpt>
      <trkpt lat="50.526224" lon="6.253727">
        <ele>486.080000</ele>
        <time>2009-04-26T10:46:37Z</time>
      </trkpt>
      <trkpt lat="50.526056" lon="6.253393">
        <ele>486.080000</ele>
        <time>2009-04-26T10:46:59Z</time>
      </trkpt>
      <trkpt lat="50.526003" lon="6.253189">
        <ele>486.080000</ele>
        <time>2009-04-26T10:47:10Z</time>
      </trkpt>
      <trkpt lat="50.526000" lon="6.253007">
        <ele>486.080000</ele>
        <time>2009-04-26T10:47:17Z</time>
      </trkpt>
      <trkpt lat="50.525987" lon="6.252870">
        <ele>486.080000</ele>
        <time>2009-04-26T10:47:22Z</time>
      </trkpt>
      <trkpt lat="50.525987" lon="6.252802">
        <ele>485.600000</ele>
        <time>2009-04-26T10:47:26Z</time>
      </trkpt>
      <trkpt lat="50.525976" lon="6.252765">
        <ele>485.600000</ele>
        <time>2009-04-26T10:47:28Z</time>
      </trkpt>
      <trkpt lat="50.525973" lon="6.252504">
        <ele>485.600000</ele>
        <time>2009-04-26T10:47:40Z</time>
      </trkpt>
      <trkpt lat="50.525952" lon="6.252359">
        <ele>485.600000</ele>
        <time>2009-04-26T10:47:48Z</time>
      </trkpt>
      <trkpt lat="50.525958" lon="6.252305">
        <ele>485.600000</ele>
        <time>2009-04-26T10:47:51Z</time>
      </trkpt>
      <trkpt lat="50.526016" lon="6.252172">
        <ele>485.600000</ele>
        <time>2009-04-26T10:47:59Z</time>
      </trkpt>
      <trkpt lat="50.526122" lon="6.252020">
        <ele>485.120000</ele>
        <time>2009-04-26T10:48:09Z</time>
      </trkpt>
      <trkpt lat="50.526236" lon="6.251927">
        <ele>485.120000</ele>
        <time>2009-04-26T10:48:18Z</time>
      </trkpt>
      <trkpt lat="50.526395" lon="6.251752">
        <ele>485.600000</ele>
        <time>2009-04-26T10:48:33Z</time>
      </trkpt>
      <trkpt lat="50.526408" lon="6.251743">
        <ele>485.600000</ele>
        <time>2009-04-26T10:48:34Z</time>
      </trkpt>
      <trkpt lat="50.526471" lon="6.251655">
        <ele>485.600000</ele>
        <time>2009-04-26T10:48:45Z</time>
      </trkpt>
      <trkpt lat="50.526523" lon="6.251608">
        <ele>485.120000</ele>
        <time>2009-04-26T10:48:49Z</time>
      </trkpt>
      <trkpt lat="50.526550" lon="6.251524">
        <ele>485.120000</ele>
        <time>2009-04-26T10:48:53Z</time>
      </trkpt>
      <trkpt lat="50.526608" lon="6.251422">
        <ele>484.640000</ele>
        <time>2009-04-26T10:49:00Z</time>
      </trkpt>
      <trkpt lat="50.526773" lon="6.251211">
        <ele>484.160000</ele>
        <time>2009-04-26T10:49:17Z</time>
      </trkpt>
      <trkpt lat="50.526870" lon="6.251028">
        <ele>484.160000</ele>
        <time>2009-04-26T10:49:28Z</time>
      </trkpt>
      <trkpt lat="50.526965" lon="6.250912">
        <ele>483.680000</ele>
        <time>2009-04-26T10:49:37Z</time>
      </trkpt>
      <trkpt lat="50.527027" lon="6.250895">
        <ele>483.680000</ele>
        <time>2009-04-26T10:49:41Z</time>
      </trkpt>
      <trkpt lat="50.527071" lon="6.250823">
        <ele>483.680000</ele>
        <time>2009-04-26T10:49:45Z</time>
      </trkpt>
      <trkpt lat="50.527108" lon="6.250741">
        <ele>483.680000</ele>
        <time>2009-04-26T10:49:49Z</time>
      </trkpt>
      <trkpt lat="50.527278" lon="6.250517">
        <ele>483.200000</ele>
        <time>2009-04-26T10:50:06Z</time>
      </trkpt>
      <trkpt lat="50.527309" lon="6.250315">
        <ele>482.240000</ele>
        <time>2009-04-26T10:50:16Z</time>
      </trkpt>
      <trkpt lat="50.527323" lon="6.250190">
        <ele>482.240000</ele>
        <time>2009-04-26T10:50:21Z</time>
      </trkpt>
      <trkpt lat="50.527493" lon="6.249908">
        <ele>482.240000</ele>
        <time>2009-04-26T10:50:39Z</time>
      </trkpt>
      <trkpt lat="50.527607" lon="6.249762">
        <ele>482.240000</ele>
        <time>2009-04-26T10:50:52Z</time>
      </trkpt>
      <trkpt lat="50.527803" lon="6.249704">
        <ele>482.720000</ele>
        <time>2009-04-26T10:51:06Z</time>
      </trkpt>
      <trkpt lat="50.527840" lon="6.249635">
        <ele>482.720000</ele>
        <time>2009-04-26T10:51:11Z</time>
      </trkpt>
      <trkpt lat="50.527889" lon="6.249591">
        <ele>482.720000</ele>
        <time>2009-04-26T10:51:17Z</time>
      </trkpt>
      <trkpt lat="50.527964" lon="6.249622">
        <ele>482.720000</ele>
        <time>2009-04-26T10:51:22Z</time>
      </trkpt>
      <trkpt lat="50.528050" lon="6.249563">
        <ele>482.720000</ele>
        <time>2009-04-26T10:51:31Z</time>
      </trkpt>
      <trkpt lat="50.528228" lon="6.249493">
        <ele>482.240000</ele>
        <time>2009-04-26T10:51:46Z</time>
      </trkpt>
      <trkpt lat="50.528254" lon="6.249481">
        <ele>482.240000</ele>
        <time>2009-04-26T10:51:48Z</time>
      </trkpt>
      <trkpt lat="50.528333" lon="6.249457">
        <ele>482.240000</ele>
        <time>2009-04-26T10:51:55Z</time>
      </trkpt>
      <trkpt lat="50.528502" lon="6.249418">
        <ele>481.280000</ele>
        <time>2009-04-26T10:52:10Z</time>
      </trkpt>
      <trkpt lat="50.528618" lon="6.249403">
        <ele>480.800000</ele>
        <time>2009-04-26T10:52:20Z</time>
      </trkpt>
      <trkpt lat="50.528793" lon="6.249378">
        <ele>480.800000</ele>
        <time>2009-04-26T10:52:32Z</time>
      </trkpt>
      <trkpt lat="50.528967" lon="6.249330">
        <ele>480.800000</ele>
        <time>2009-04-26T10:52:43Z</time>
      </trkpt>
      <trkpt lat="50.529100" lon="6.249294">
        <ele>480.320000</ele>
        <time>2009-04-26T10:52:52Z</time>
      </trkpt>
      <trkpt lat="50.529249" lon="6.249204">
        <ele>479.840000</ele>
        <time>2009-04-26T10:53:05Z</time>
      </trkpt>
      <trkpt lat="50.529383" lon="6.249188">
        <ele>479.350000</ele>
        <time>2009-04-26T10:53:16Z</time>
      </trkpt>
      <trkpt lat="50.529437" lon="6.249131">
        <ele>478.870000</ele>
        <time>2009-04-26T10:53:21Z</time>
      </trkpt>
      <trkpt lat="50.529560" lon="6.249166">
        <ele>478.870000</ele>
        <time>2009-04-26T10:53:30Z</time>
      </trkpt>
      <trkpt lat="50.529679" lon="6.249175">
        <ele>479.350000</ele>
        <time>2009-04-26T10:53:42Z</time>
      </trkpt>
      <trkpt lat="50.529836" lon="6.249273">
        <ele>479.350000</ele>
        <time>2009-04-26T10:53:56Z</time>
      </trkpt>
      <trkpt lat="50.529945" lon="6.249322">
        <ele>479.350000</ele>
        <time>2009-04-26T10:54:08Z</time>
      </trkpt>
      <trkpt lat="50.530245" lon="6.249440">
        <ele>480.320000</ele>
        <time>2009-04-26T10:54:35Z</time>
      </trkpt>
      <trkpt lat="50.530420" lon="6.249374">
        <ele>479.840000</ele>
        <time>2009-04-26T10:54:57Z</time>
      </trkpt>
      <trkpt lat="50.530506" lon="6.249199">
        <ele>479.840000</ele>
        <time>2009-04-26T10:55:36Z</time>
      </trkpt>
      <trkpt lat="50.530767" lon="6.249353">
        <ele>480.320000</ele>
        <time>2009-04-26T10:55:58Z</time>
      </trkpt>
      <trkpt lat="50.530916" lon="6.249252">
        <ele>480.320000</ele>
        <time>2009-04-26T10:56:20Z</time>
      </trkpt>
      <trkpt lat="50.531100" lon="6.248966">
        <ele>481.280000</ele>
        <time>2009-04-26T10:56:41Z</time>
      </trkpt>
      <trkpt lat="50.531153" lon="6.248751">
        <ele>482.240000</ele>
        <time>2009-04-26T10:56:55Z</time>
      </trkpt>
      <trkpt lat="50.531113" lon="6.248458">
        <ele>484.640000</ele>
        <time>2009-04-26T10:57:12Z</time>
      </trkpt>
      <trkpt lat="50.531031" lon="6.248265">
        <ele>486.080000</ele>
        <time>2009-04-26T10:57:26Z</time>
      </trkpt>
      <trkpt lat="50.530957" lon="6.247929">
        <ele>488.010000</ele>
        <time>2009-04-26T10:57:44Z</time>
      </trkpt>
      <trkpt lat="50.530943" lon="6.247705">
        <ele>488.490000</ele>
        <time>2009-04-26T10:57:54Z</time>
      </trkpt>
      <trkpt lat="50.530931" lon="6.247664">
        <ele>488.970000</ele>
        <time>2009-04-26T10:57:57Z</time>
      </trkpt>
      <trkpt lat="50.530950" lon="6.247357">
        <ele>489.930000</ele>
        <time>2009-04-26T10:58:11Z</time>
      </trkpt>
      <trkpt lat="50.531041" lon="6.247251">
        <ele>491.850000</ele>
        <time>2009-04-26T10:58:23Z</time>
      </trkpt>
      <trkpt lat="50.531156" lon="6.247096">
        <ele>494.740000</ele>
        <time>2009-04-26T10:58:42Z</time>
      </trkpt>
      <trkpt lat="50.531259" lon="6.246878">
        <ele>498.100000</ele>
        <time>2009-04-26T10:59:02Z</time>
      </trkpt>
      <trkpt lat="50.531359" lon="6.246690">
        <ele>500.980000</ele>
        <time>2009-04-26T10:59:18Z</time>
      </trkpt>
      <trkpt lat="50.531409" lon="6.246503">
        <ele>502.910000</ele>
        <time>2009-04-26T10:59:32Z</time>
      </trkpt>
      <trkpt lat="50.531553" lon="6.246352">
        <ele>505.310000</ele>
        <time>2009-04-26T10:59:48Z</time>
      </trkpt>
      <trkpt lat="50.531708" lon="6.246158">
        <ele>508.190000</ele>
        <time>2009-04-26T11:00:06Z</time>
      </trkpt>
      <trkpt lat="50.531859" lon="6.246019">
        <ele>510.600000</ele>
        <time>2009-04-26T11:00:24Z</time>
      </trkpt>
      <trkpt lat="50.532020" lon="6.245847">
        <ele>513.000000</ele>
        <time>2009-04-26T11:00:44Z</time>
      </trkpt>
      <trkpt lat="50.532158" lon="6.245749">
        <ele>514.440000</ele>
        <time>2009-04-26T11:00:58Z</time>
      </trkpt>
      <trkpt lat="50.532375" lon="6.245833">
        <ele>516.850000</ele>
        <time>2009-04-26T11:01:21Z</time>
      </trkpt>
      <trkpt lat="50.532472" lon="6.246009">
        <ele>520.210000</ele>
        <time>2009-04-26T11:01:38Z</time>
      </trkpt>
      <trkpt lat="50.532646" lon="6.246180">
        <ele>523.090000</ele>
        <time>2009-04-26T11:01:56Z</time>
      </trkpt>
      <trkpt lat="50.532767" lon="6.246368">
        <ele>525.980000</ele>
        <time>2009-04-26T11:02:15Z</time>
      </trkpt>
      <trkpt lat="50.532764" lon="6.246551">
        <ele>529.340000</ele>
        <time>2009-04-26T11:02:32Z</time>
      </trkpt>
      <trkpt lat="50.532679" lon="6.246699">
        <ele>532.230000</ele>
        <time>2009-04-26T11:02:49Z</time>
      </trkpt>
      <trkpt lat="50.532593" lon="6.246970">
        <ele>535.590000</ele>
        <time>2009-04-26T11:03:11Z</time>
      </trkpt>
      <trkpt lat="50.532563" lon="6.247170">
        <ele>538.480000</ele>
        <time>2009-04-26T11:03:29Z</time>
      </trkpt>
      <trkpt lat="50.532679" lon="6.247283">
        <ele>539.440000</ele>
        <time>2009-04-26T11:03:44Z</time>
      </trkpt>
      <trkpt lat="50.532775" lon="6.247505">
        <ele>540.880000</ele>
        <time>2009-04-26T11:04:04Z</time>
      </trkpt>
      <trkpt lat="50.532837" lon="6.247662">
        <ele>541.360000</ele>
        <time>2009-04-26T11:04:12Z</time>
      </trkpt>
      <trkpt lat="50.532951" lon="6.247988">
        <ele>541.840000</ele>
        <time>2009-04-26T11:04:33Z</time>
      </trkpt>
      <trkpt lat="50.533002" lon="6.248289">
        <ele>542.800000</ele>
        <time>2009-04-26T11:04:51Z</time>
      </trkpt>
      <trkpt lat="50.533002" lon="6.248625">
        <ele>543.280000</ele>
        <time>2009-04-26T11:05:06Z</time>
      </trkpt>
      <trkpt lat="50.532975" lon="6.248976">
        <ele>544.240000</ele>
        <time>2009-04-26T11:05:22Z</time>
      </trkpt>
      <trkpt lat="50.532959" lon="6.249289">
        <ele>544.240000</ele>
        <time>2009-04-26T11:05:39Z</time>
      </trkpt>
      <trkpt lat="50.532944" lon="6.249393">
        <ele>544.720000</ele>
        <time>2009-04-26T11:05:45Z</time>
      </trkpt>
      <trkpt lat="50.532925" lon="6.249649">
        <ele>544.720000</ele>
        <time>2009-04-26T11:05:59Z</time>
      </trkpt>
      <trkpt lat="50.532893" lon="6.249867">
        <ele>545.200000</ele>
        <time>2009-04-26T11:06:10Z</time>
      </trkpt>
      <trkpt lat="50.532882" lon="6.250010">
        <ele>545.200000</ele>
        <time>2009-04-26T11:06:17Z</time>
      </trkpt>
      <trkpt lat="50.532858" lon="6.250326">
        <ele>546.170000</ele>
        <time>2009-04-26T11:06:32Z</time>
      </trkpt>
      <trkpt lat="50.532870" lon="6.250650">
        <ele>546.650000</ele>
        <time>2009-04-26T11:06:48Z</time>
      </trkpt>
      <trkpt lat="50.532874" lon="6.250720">
        <ele>546.650000</ele>
        <time>2009-04-26T11:06:52Z</time>
      </trkpt>
      <trkpt lat="50.532884" lon="6.250986">
        <ele>547.610000</ele>
        <time>2009-04-26T11:07:07Z</time>
      </trkpt>
      <trkpt lat="50.532912" lon="6.251257">
        <ele>548.090000</ele>
        <time>2009-04-26T11:07:19Z</time>
      </trkpt>
      <trkpt lat="50.532938" lon="6.251546">
        <ele>548.570000</ele>
        <time>2009-04-26T11:07:33Z</time>
      </trkpt>
      <trkpt lat="50.532943" lon="6.251593">
        <ele>548.570000</ele>
        <time>2009-04-26T11:07:35Z</time>
      </trkpt>
      <trkpt lat="50.532958" lon="6.251690">
        <ele>548.570000</ele>
        <time>2009-04-26T11:07:40Z</time>
      </trkpt>
      <trkpt lat="50.532981" lon="6.251798">
        <ele>548.570000</ele>
        <time>2009-04-26T11:07:45Z</time>
      </trkpt>
      <trkpt lat="50.532977" lon="6.251863">
        <ele>549.050000</ele>
        <time>2009-04-26T11:07:48Z</time>
      </trkpt>
      <trkpt lat="50.533011" lon="6.252081">
        <ele>550.010000</ele>
        <time>2009-04-26T11:08:04Z</time>
      </trkpt>
      <trkpt lat="50.533069" lon="6.252427">
        <ele>551.450000</ele>
        <time>2009-04-26T11:08:23Z</time>
      </trkpt>
      <trkpt lat="50.533079" lon="6.252707">
        <ele>553.380000</ele>
        <time>2009-04-26T11:08:37Z</time>
      </trkpt>
      <trkpt lat="50.533081" lon="6.252724">
        <ele>553.380000</ele>
        <time>2009-04-26T11:08:38Z</time>
      </trkpt>
      <trkpt lat="50.533100" lon="6.252840">
        <ele>553.860000</ele>
        <time>2009-04-26T11:08:44Z</time>
      </trkpt>
      <trkpt lat="50.533128" lon="6.252943">
        <ele>554.340000</ele>
        <time>2009-04-26T11:08:51Z</time>
      </trkpt>
      <trkpt lat="50.533110" lon="6.252972">
        <ele>554.820000</ele>
        <time>2009-04-26T11:08:59Z</time>
      </trkpt>
      <trkpt lat="50.533123" lon="6.252973">
        <ele>554.820000</ele>
        <time>2009-04-26T11:09:11Z</time>
      </trkpt>
    </trkseg>
  </trk>

</gpx>
